Portada
METAR-TAF:

METAR-TAF

Aeroports :

Karachi, Pakistan

latitud: 24-54N, longitud: 067-08E, altitud: 21 m

Observació

L'informe es va fer fa 21 minuts, a les 00:25 UTC
Vent calma
Temperatura 23°C
Humitat 50%
Pressió 1011 hPa
Visibilitat: 5000 m
calitja

METAR: OPKC 040025Z 00000KT 5000 HZ NSC 23/12 Q1011 NOSIG

Hora: 05:46 (00:46 UTC)

Pronòstic

L'informe es va fer fa 2 hores i 46 minuts, a les 22:00 UTC
Pronòstic vàlid del 04 a les 00 UTC al 05 a les 06 UTC
Vent 10 kt del Oest
Visibilitat: 6000 m
Temporalment
l' 04 a les 00 UTC al 04 a les 04 UTC
Vent 5 kt del Nord/Nord-Est
Visibilitat: 4000 m
calitja
Evolucionant progressivament
l' 04 a les 09 UTC al 04 a les 11 UTC
Vent 5 kt del Sud-Oest amb ràfegues de 15 kt
Visibilitat: 6000 m
Temporalment
l' 05 a les 00 UTC al 05 a les 04 UTC
Vent 5 kt del Nord-Oest
Visibilitat: 4000 m
calitja

TAF: OPKC 032200Z 0400/0506 27010KT 6000 NSC TEMPO 0400/0404 02005KT 4000 HZ NSC BECMG 0409/0411 23005G15KT 6000 NSC TEMPO 0500/0504 32005KT 4000 HZ NSC

Observacions i pronòstics meteorològics de més de 4000 aeroports (METAR i TAF).

Les estacions disponibles són els punts grocs i vermells al mapa.

Posi el ratolí al punt desitjat per veure el nom de l'estació.

Feu clic per veure les observacions i els pronòstics meteorològics.

Per canviar el mapa: feu clic els botons verds amb una creu de color negre per apropar; al botó verd amb un guió per allunyar la imatge; o en les fletxes verdes per a mapes adjacents.


METAR-TAF: